createdAt,value
2023-02-01T00:00:01.805Z,24.10
2023-02-01T00:02:29.056Z,27.30
2023-02-01T00:04:56.187Z,26.90
2023-02-01T00:07:23.235Z,25.73
2023-02-01T00:09:50.339Z,27.87
2023-02-01T00:12:17.430Z,22.47
2023-02-01T00:14:44.684Z,25.73
2023-02-01T00:17:11.752Z,30.87
2023-02-01T00:19:38.851Z,28.20
2023-02-01T00:22:05.996Z,28.23
2023-02-01T00:24:33.106Z,30.47
2023-02-01T00:27:00.194Z,28.63
2023-02-01T00:29:27.355Z,31.47
2023-02-01T00:31:54.435Z,31.73
2023-02-01T00:34:22.036Z,32.97
2023-02-01T00:36:49.226Z,30.10
2023-02-01T00:39:16.549Z,30.47
2023-02-01T00:41:44.166Z,31.20
2023-02-01T00:44:11.636Z,27.60
2023-02-01T00:46:38.880Z,23.03
2023-02-01T00:49:08.320Z,24.63
2023-02-01T04:57:44.692Z,15.73
2023-02-01T05:00:12.811Z,14.90
2023-02-01T05:02:39.965Z,15.13
2023-02-01T05:05:07.575Z,13.63
2023-02-01T05:07:34.648Z,14.33
2023-02-01T05:10:01.754Z,14.33
2023-02-01T05:12:47.170Z,17.83
2023-02-01T05:15:14.403Z,13.27
2023-02-01T05:17:41.508Z,15.93
2023-02-01T05:20:10.133Z,14.40
2023-02-01T05:22:37.245Z,14.33
2023-02-01T05:25:06.271Z,14.93
2023-02-01T05:27:34.385Z,21.20
2023-02-01T05:30:01.656Z,19.23
2023-02-01T05:32:28.807Z,13.70
2023-02-01T05:34:56.138Z,18.37
2023-02-01T05:37:23.328Z,13.47
2023-02-01T05:39:50.466Z,13.13
2023-02-01T05:42:17.547Z,12.93
2023-02-01T05:44:44.939Z,16.63
2023-02-01T05:47:12.018Z,16.63
2023-02-01T05:49:39.196Z,12.47
2023-02-01T05:52:06.315Z,16.20
2023-02-01T05:54:33.535Z,15.30
2023-02-01T05:57:00.625Z,13.77
2023-02-01T05:59:27.718Z,16.10
2023-02-01T06:01:54.806Z,12.50
2023-02-01T06:04:22.035Z,13.50
2023-02-01T06:06:51.479Z,17.60
2023-02-01T06:09:18.758Z,15.77
2023-02-01T06:11:46.118Z,12.83
2023-02-01T06:14:13.236Z,12.80
2023-02-01T06:16:40.315Z,12.87
2023-02-01T06:19:07.627Z,14.07
2023-02-01T06:21:35.917Z,16.13
2023-02-01T06:24:03.064Z,17.60
2023-02-01T06:26:30.259Z,19.70
2023-02-01T06:28:57.822Z,14.80
2023-02-01T06:31:26.389Z,14.27
2023-02-01T06:33:54.565Z,15.97
2023-02-01T06:36:22.447Z,17.70
2023-02-01T06:38:49.707Z,12.87
2023-02-01T06:41:17.453Z,16.17
2023-02-01T06:43:44.811Z,15.97
2023-02-01T06:46:14.247Z,16.33
2023-02-01T06:48:41.756Z,17.47
2023-02-01T06:51:29.396Z,16.73
2023-02-01T06:53:57.074Z,18.07
2023-02-01T06:56:24.553Z,20.43
2023-02-01T06:58:52.396Z,18.23
2023-02-01T07:01:19.455Z,23.50
2023-02-01T07:03:52.141Z,22.90
2023-02-01T07:06:20.088Z,20.47
2023-02-01T07:08:47.182Z,22.70
2023-02-01T07:11:16.393Z,28.70
2023-02-01T07:13:44.501Z,22.63
2023-02-01T07:16:14.513Z,22.10
2023-02-01T07:18:41.823Z,22.43
2023-02-01T07:21:10.044Z,26.60
2023-02-01T07:23:37.873Z,26.83
2023-02-01T07:26:07.030Z,21.80
2023-02-01T07:28:36.325Z,24.83
2023-02-01T07:31:05.272Z,23.60
2023-02-01T07:33:32.739Z,24.50
2023-02-01T07:36:04.088Z,25.17
2023-02-01T07:38:31.391Z,27.00
2023-02-01T07:41:06.660Z,27.37
2023-02-01T07:43:37.221Z,22.23
2023-02-01T07:46:05.286Z,22.67
2023-02-01T07:48:33.143Z,24.30
2023-02-01T07:51:12.050Z,30.03
2023-02-01T07:53:39.902Z,28.40
2023-02-01T07:56:15.907Z,31.33
2023-02-01T07:58:43.575Z,34.80
2023-02-01T08:01:22.050Z,33.23
2023-02-01T08:03:55.230Z,38.53
2023-02-01T08:06:24.002Z,35.67
2023-02-01T08:08:51.521Z,39.57
2023-02-01T08:11:19.993Z,49.27
2023-02-01T08:13:47.245Z,53.07
2023-02-01T08:16:16.301Z,50.83
2023-02-01T08:18:43.690Z,51.73
2023-02-01T08:21:23.338Z,55.50
2023-02-01T08:23:51.345Z,55.20
2023-02-01T08:26:27.192Z,57.03
2023-02-01T08:29:00.789Z,58.87
2023-02-01T08:31:30.340Z,48.87
2023-02-01T08:34:00.187Z,51.00
2023-02-01T08:36:29.205Z,54.57
2023-02-01T08:38:56.830Z,60.50
2023-02-01T08:41:27.092Z,48.97
2023-02-01T08:43:55.411Z,47.20
2023-02-01T08:46:23.400Z,48.13
2023-02-01T08:48:51.327Z,43.17
2023-02-01T08:51:20.492Z,45.27
2023-02-01T08:53:48.385Z,38.83
2023-02-01T08:56:17.070Z,42.63
2023-02-01T08:58:45.463Z,37.80
2023-02-01T09:01:16.274Z,41.47
2023-02-01T09:03:43.547Z,41.77
2023-02-01T09:06:13.289Z,38.23
2023-02-01T09:08:41.280Z,31.23
2023-02-01T09:11:13.009Z,35.20
2023-02-01T09:13:40.241Z,29.60
2023-02-01T09:16:07.499Z,28.10
2023-02-01T09:18:35.452Z,28.33
2023-02-01T09:21:06.796Z,32.73
2023-02-01T09:23:34.966Z,23.00
2023-02-01T09:26:04.691Z,36.43
2023-02-01T09:28:32.573Z,29.30
2023-02-01T09:31:01.602Z,25.63
2023-02-01T09:33:30.189Z,28.80
2023-02-01T09:36:05.775Z,24.33
2023-02-01T09:38:36.448Z,26.63
2023-02-01T09:41:42.030Z,23.53
2023-02-01T09:44:47.092Z,29.70
2023-02-01T09:47:17.403Z,28.53
2023-02-01T09:50:02.096Z,26.83
2023-02-01T09:52:37.221Z,29.83
2023-02-01T09:55:21.812Z,31.73
2023-02-01T09:58:03.342Z,27.93
2023-02-01T10:00:40.027Z,26.00
2023-02-01T10:03:13.597Z,23.53
2023-02-01T10:06:09.706Z,29.30
2023-02-01T10:09:25.720Z,27.83
2023-02-01T10:12:31.098Z,26.90
2023-02-01T10:15:28.465Z,23.63
2023-02-01T10:18:18.923Z,26.77
2023-02-01T10:21:18.469Z,25.10
2023-02-01T10:24:16.109Z,24.87
2023-02-01T10:26:50.156Z,22.77
2023-02-01T10:29:20.821Z,23.33
2023-02-01T10:31:48.056Z,21.97
2023-02-01T10:34:31.076Z,20.63
2023-02-01T10:37:02.807Z,32.47
2023-02-01T10:39:30.058Z,23.73
2023-02-01T10:41:57.791Z,21.93
2023-02-01T10:44:28.314Z,17.03
2023-02-01T10:46:55.936Z,20.53
2023-02-01T10:49:33.644Z,22.77
2023-02-01T10:52:33.357Z,20.43
2023-02-01T10:55:41.074Z,24.37
2023-02-01T10:58:26.862Z,20.23
2023-02-01T11:01:05.229Z,19.67
2023-02-01T11:03:39.759Z,19.27
2023-02-01T11:06:32.075Z,16.37
2023-02-01T11:09:29.012Z,16.17
2023-02-01T11:12:01.087Z,18.53
2023-02-01T11:14:39.500Z,18.30
2023-02-01T11:17:25.947Z,15.07
2023-02-01T11:20:35.510Z,13.20
2023-02-01T11:23:03.584Z,16.30
2023-02-01T11:25:33.497Z,13.67
2023-02-01T11:28:00.692Z,12.00
2023-02-01T11:30:38.292Z,12.37
2023-02-01T11:33:07.219Z,11.90
2023-02-01T11:35:40.307Z,13.77
2023-02-01T11:38:26.431Z,12.60
2023-02-01T11:40:53.585Z,10.50
2023-02-01T11:43:28.801Z,11.50
2023-02-01T11:45:58.691Z,9.80
2023-02-01T11:48:28.510Z,13.00
2023-02-01T11:51:28.956Z,10.23
2023-02-01T11:54:27.582Z,10.33
2023-02-01T11:57:15.008Z,9.37
2023-02-01T12:00:22.931Z,9.53
2023-02-01T12:03:30.770Z,11.80
2023-02-01T12:06:22.600Z,9.13
2023-02-01T12:09:26.569Z,8.97
2023-02-01T12:12:17.882Z,12.93
2023-02-01T12:15:19.204Z,9.23
2023-02-01T12:18:19.236Z,13.17
2023-02-01T12:24:36.757Z,6.70
2023-02-01T12:27:31.863Z,8.13
2023-02-01T12:42:39.782Z,7.20
2023-02-01T12:45:37.776Z,9.03
2023-02-01T12:48:27.396Z,13.10
2023-02-01T12:51:25.857Z,6.40
2023-02-01T12:54:07.177Z,11.30
2023-02-01T12:56:43.697Z,9.70
2023-02-01T12:59:23.562Z,13.17
2023-02-01T13:02:02.714Z,9.80
2023-02-01T13:05:18.973Z,11.23
2023-02-01T13:07:54.002Z,11.87
2023-02-01T13:10:44.777Z,12.17
2023-02-01T13:13:28.222Z,7.30
2023-02-01T13:16:04.097Z,10.37
2023-02-01T13:18:39.189Z,8.50
2023-02-01T13:21:17.954Z,7.20
2023-02-01T13:23:47.786Z,9.97
2023-02-01T13:26:14.842Z,9.53
2023-02-01T13:28:54.211Z,12.80
2023-02-01T13:31:51.370Z,15.20
2023-02-01T13:35:03.107Z,6.20
2023-02-01T13:38:16.370Z,10.93
2023-02-01T13:40:49.766Z,8.33
2023-02-01T13:43:29.916Z,15.20
2023-02-01T13:46:05.762Z,8.03
2023-02-01T13:48:49.658Z,11.13
2023-02-01T13:51:19.117Z,12.80
2023-02-01T13:53:49.215Z,9.30
2023-02-01T13:56:21.224Z,11.03
2023-02-01T13:58:49.764Z,10.03
2023-02-01T14:01:37.183Z,8.20
2023-02-01T14:04:27.900Z,11.20
2023-02-01T14:06:58.207Z,8.27
2023-02-01T14:09:35.295Z,7.27
2023-02-01T14:12:40.785Z,6.63
2023-02-01T14:15:28.769Z,8.47
2023-02-01T14:17:56.797Z,10.27
2023-02-01T14:20:45.006Z,7.27
2023-02-01T14:23:18.947Z,9.33
2023-02-01T14:25:48.568Z,6.87
2023-02-01T14:28:35.821Z,9.90
2023-02-01T14:31:17.298Z,7.90
2023-02-01T14:33:45.230Z,9.23
2023-02-01T14:36:14.916Z,8.83
2023-02-01T14:38:50.755Z,11.53
2023-02-01T14:41:36.864Z,9.23
2023-02-01T14:44:28.522Z,9.97
2023-02-01T14:47:27.881Z,11.17
2023-02-01T14:50:21.478Z,7.67
2023-02-01T14:53:21.022Z,12.77
2023-02-01T14:56:11.737Z,17.90
2023-02-01T14:59:07.313Z,8.40
2023-02-01T15:01:40.417Z,7.63
2023-02-01T15:04:23.101Z,10.77
2023-02-01T15:06:59.712Z,12.23
2023-02-01T15:09:38.420Z,12.47
2023-02-01T15:12:23.905Z,15.63
2023-02-01T15:15:28.253Z,13.17
2023-02-01T15:17:58.424Z,14.50
2023-02-01T15:20:28.476Z,16.27
2023-02-01T15:23:06.742Z,7.07
2023-02-01T15:25:39.718Z,12.87
2023-02-01T15:28:14.260Z,15.63
2023-02-01T15:30:52.500Z,9.20
2023-02-01T15:33:21.357Z,8.23
2023-02-01T15:36:12.997Z,9.30
2023-02-01T15:38:44.801Z,9.70
2023-02-01T15:41:17.115Z,7.77
2023-02-01T15:44:13.618Z,16.50
2023-02-01T15:46:46.900Z,7.43
2023-02-01T15:49:30.916Z,8.00
2023-02-01T15:52:00.311Z,10.53
2023-02-01T15:54:37.682Z,6.43
2023-02-01T15:57:06.469Z,11.20
2023-02-01T15:59:45.627Z,8.40
2023-02-01T16:02:42.159Z,8.93
2023-02-01T16:05:40.972Z,7.67
2023-02-01T16:08:22.953Z,12.63
2023-02-01T16:10:52.980Z,14.40
2023-02-01T16:13:21.616Z,8.67
2023-02-01T16:15:49.632Z,7.50
2023-02-01T16:18:18.927Z,7.20
2023-02-01T16:20:48.750Z,14.20
2023-02-01T16:23:15.945Z,10.00
2023-02-01T16:25:43.744Z,11.73
2023-02-01T16:28:11.182Z,14.30
2023-02-01T16:30:38.494Z,14.90
2023-02-01T16:33:07.647Z,10.37
2023-02-01T16:35:37.441Z,8.93
2023-02-01T16:38:13.072Z,6.80
2023-02-01T16:40:41.335Z,10.27
2023-02-01T16:43:20.265Z,16.10
2023-02-01T16:45:49.488Z,16.43
2023-02-01T16:48:26.567Z,10.23
2023-02-01T16:51:03.730Z,12.27
2023-02-01T16:53:36.570Z,15.90
2023-02-01T16:56:21.438Z,8.80
2023-02-01T16:58:49.183Z,13.43
2023-02-01T17:01:19.409Z,11.27
2023-02-01T17:03:47.292Z,11.90
2023-02-01T17:06:26.268Z,13.17
2023-02-01T17:08:56.218Z,10.83
2023-02-01T17:11:23.359Z,15.80
2023-02-01T17:13:51.233Z,17.57
2023-02-01T17:16:36.412Z,12.83
2023-02-01T17:19:08.064Z,9.27
2023-02-01T17:21:45.181Z,9.90
2023-02-01T17:24:17.189Z,10.27
2023-02-01T17:26:45.260Z,10.83
2023-02-01T17:29:12.994Z,12.30
2023-02-01T17:31:44.186Z,9.10
2023-02-01T17:34:14.271Z,11.37
2023-02-01T17:36:42.670Z,9.47
2023-02-01T17:39:10.679Z,7.50
2023-02-01T17:41:38.153Z,10.13
2023-02-01T17:44:05.566Z,11.87
2023-02-01T17:46:32.894Z,16.37
2023-02-01T17:49:01.468Z,17.87
2023-02-01T17:51:31.016Z,10.00
2023-02-01T17:53:58.234Z,16.27
2023-02-01T17:56:26.025Z,16.80
2023-02-01T17:58:53.190Z,15.47
2023-02-01T18:01:22.299Z,7.67
2023-02-01T18:03:50.144Z,12.73
2023-02-01T18:06:20.067Z,12.63
2023-02-01T18:08:47.570Z,11.40
2023-02-01T18:11:20.315Z,10.43
2023-02-01T18:13:48.485Z,10.17
2023-02-01T18:16:31.433Z,10.60
2023-02-01T18:19:01.905Z,6.23
2023-02-01T18:21:41.924Z,13.40
2023-02-01T18:24:17.323Z,9.07
2023-02-01T18:26:44.971Z,14.50
2023-02-01T18:29:12.488Z,12.97
2023-02-01T18:31:46.723Z,11.00
2023-02-01T18:34:21.382Z,18.63
2023-02-01T18:36:52.163Z,12.57
2023-02-01T18:39:19.330Z,14.03
2023-02-01T18:41:48.125Z,10.20
2023-02-01T18:44:16.303Z,13.57
2023-02-01T18:46:44.073Z,15.17
2023-02-01T18:49:14.107Z,12.53
2023-02-01T18:51:42.708Z,12.23
2023-02-01T18:54:12.112Z,18.67
2023-02-01T18:56:39.683Z,12.00
2023-02-01T18:59:06.801Z,13.53
2023-02-01T19:01:33.908Z,9.87
2023-02-01T19:04:17.855Z,10.37
2023-02-01T19:06:47.627Z,12.10
2023-02-01T19:09:14.713Z,8.83
2023-02-01T19:11:41.936Z,16.77
2023-02-01T19:14:09.076Z,13.17
2023-02-01T19:16:39.952Z,9.83
2023-02-01T19:19:07.284Z,8.67
2023-02-01T19:21:34.375Z,11.40
2023-02-01T19:24:01.513Z,11.70
2023-02-01T19:26:28.663Z,9.73
2023-02-01T19:28:58.526Z,12.87
2023-02-01T19:31:25.801Z,13.73
2023-02-01T19:33:55.987Z,11.63
2023-02-01T19:36:24.092Z,13.97
2023-02-01T19:38:51.207Z,17.17
2023-02-01T19:41:18.443Z,18.93
2023-02-01T19:43:45.661Z,13.60
2023-02-01T19:46:12.910Z,8.47
2023-02-01T19:48:40.019Z,14.83
2023-02-01T19:51:08.427Z,13.83
2023-02-01T19:53:35.517Z,9.23
2023-02-01T19:56:02.901Z,6.53
2023-02-01T19:58:30.166Z,8.27
2023-02-01T20:01:06.481Z,12.47
2023-02-01T20:03:33.639Z,14.53
2023-02-01T20:06:01.798Z,16.87
2023-02-01T20:08:29.003Z,13.83
2023-02-01T20:10:57.475Z,19.63
2023-02-01T20:13:24.816Z,11.90
2023-02-01T20:15:59.802Z,9.27
2023-02-01T20:18:27.819Z,9.53
2023-02-01T20:20:58.734Z,7.00
2023-02-01T20:23:27.736Z,10.83
2023-02-01T20:25:57.375Z,8.83
2023-02-01T20:28:24.505Z,9.73
2023-02-01T20:30:51.865Z,14.43
2023-02-01T20:33:19.395Z,11.73
2023-02-01T20:35:46.502Z,11.13
2023-02-01T20:38:15.054Z,10.33
2023-02-01T20:40:42.112Z,12.00
2023-02-01T20:43:09.926Z,15.00
2023-02-01T20:45:41.628Z,9.00
2023-02-01T20:48:09.152Z,13.43
2023-02-01T20:50:36.761Z,11.73
2023-02-01T20:53:05.294Z,12.30
2023-02-01T20:55:32.364Z,11.57
2023-02-01T20:57:59.527Z,12.20
2023-02-01T21:00:28.219Z,13.17
2023-02-01T21:02:55.428Z,10.77
2023-02-01T21:05:22.969Z,13.43
2023-02-01T21:07:50.203Z,13.67
2023-02-01T21:10:17.335Z,10.83
2023-02-01T21:12:44.523Z,12.40
2023-02-01T21:15:12.089Z,12.03
2023-02-01T21:17:40.956Z,9.77
2023-02-01T21:20:08.694Z,8.20
2023-02-01T21:22:35.843Z,9.63
2023-02-01T21:25:02.970Z,10.90
2023-02-01T21:27:30.151Z,14.53
2023-02-01T21:29:57.236Z,13.80
2023-02-01T21:32:24.294Z,13.13
2023-02-01T21:34:52.844Z,7.80
2023-02-01T21:37:25.665Z,11.53
2023-02-01T21:39:52.977Z,17.13
2023-02-01T21:42:22.149Z,12.40
2023-02-01T21:44:49.453Z,12.93
2023-02-01T21:47:18.417Z,16.30
2023-02-01T21:49:46.718Z,7.57
2023-02-01T21:52:15.625Z,14.07
2023-02-01T21:54:43.074Z,10.77
2023-02-01T21:57:12.631Z,14.87
2023-02-01T21:59:43.764Z,21.23
2023-02-01T22:02:16.599Z,9.07
2023-02-01T22:04:44.727Z,7.20
2023-02-01T22:07:12.171Z,8.63
2023-02-01T22:09:39.415Z,12.73
2023-02-01T22:12:08.444Z,12.60
2023-02-01T22:14:35.670Z,12.57
2023-02-01T22:17:02.744Z,12.63
2023-02-01T22:19:29.893Z,14.17
2023-02-01T22:21:57.106Z,18.37
2023-02-01T22:24:24.387Z,17.57
2023-02-01T22:26:51.583Z,9.37
2023-02-01T22:29:21.602Z,12.93
2023-02-01T22:31:48.829Z,18.33
2023-02-01T22:34:16.321Z,13.03
2023-02-01T22:36:43.985Z,10.93
2023-02-01T22:39:11.322Z,12.33
2023-02-01T22:41:38.936Z,15.13
2023-02-01T22:44:06.846Z,14.07
2023-02-01T22:46:34.269Z,12.43
2023-02-01T22:49:01.451Z,12.57
2023-02-01T22:51:30.983Z,9.60
2023-02-01T22:53:58.448Z,11.77
2023-02-01T22:56:30.226Z,12.50
2023-02-01T22:58:59.855Z,13.83
2023-02-01T23:01:27.917Z,12.20
2023-02-01T23:04:02.830Z,13.87
2023-02-01T23:06:31.458Z,12.87
2023-02-01T23:09:02.939Z,17.07
2023-02-01T23:11:30.747Z,15.60
2023-02-01T23:13:57.927Z,14.60
2023-02-01T23:16:25.400Z,20.77
2023-02-01T23:18:52.611Z,12.90
2023-02-01T23:21:21.182Z,16.53
2023-02-01T23:23:53.217Z,12.87
2023-02-01T23:26:21.804Z,13.33
2023-02-01T23:28:50.865Z,14.40
2023-02-01T23:31:18.224Z,10.50
2023-02-01T23:33:46.043Z,10.40
2023-02-01T23:36:16.326Z,14.10
2023-02-01T23:38:47.134Z,11.43
2023-02-01T23:41:15.633Z,12.17
2023-02-01T23:43:58.039Z,11.33
2023-02-01T23:46:31.386Z,12.87
2023-02-01T23:48:59.451Z,10.70
2023-02-01T23:51:27.279Z,11.37
2023-02-01T23:53:55.870Z,18.80
2023-02-01T23:56:33.313Z,8.17
2023-02-01T23:59:13.103Z,17.87
